sensor_id;sensor_type;location;lat;lon;timestamp;temperature;humidity
7341;DHT22;6870;50.944;6.932;2024-01-25T00:00:22;17.90;28.50
7341;DHT22;6870;50.944;6.932;2024-01-25T00:02:50;17.70;28.50
7341;DHT22;6870;50.944;6.932;2024-01-25T00:05:19;17.50;28.50
7341;DHT22;6870;50.944;6.932;2024-01-25T00:07:48;17.50;28.20
7341;DHT22;6870;50.944;6.932;2024-01-25T00:10:17;17.60;28.70
7341;DHT22;6870;50.944;6.932;2024-01-25T00:12:46;17.70;28.80
7341;DHT22;6870;50.944;6.932;2024-01-25T00:15:15;17.70;28.50
7341;DHT22;6870;50.944;6.932;2024-01-25T00:17:43;17.60;28.70
7341;DHT22;6870;50.944;6.932;2024-01-25T00:20:12;17.60;28.70
7341;DHT22;6870;50.944;6.932;2024-01-25T00:22:40;17.50;28.70
7341;DHT22;6870;50.944;6.932;2024-01-25T00:25:09;17.70;28.80
7341;DHT22;6870;50.944;6.932;2024-01-25T00:27:37;17.60;28.70
7341;DHT22;6870;50.944;6.932;2024-01-25T00:30:06;17.30;28.40
7341;DHT22;6870;50.944;6.932;2024-01-25T00:32:36;17.60;28.80
7341;DHT22;6870;50.944;6.932;2024-01-25T00:35:05;17.60;28.70
7341;DHT22;6870;50.944;6.932;2024-01-25T00:37:37;17.50;28.70
7341;DHT22;6870;50.944;6.932;2024-01-25T00:40:07;17.60;28.80
7341;DHT22;6870;50.944;6.932;2024-01-25T00:42:41;17.50;28.80
7341;DHT22;6870;50.944;6.932;2024-01-25T00:45:11;17.60;28.90
7341;DHT22;6870;50.944;6.932;2024-01-25T00:47:42;17.60;28.90
7341;DHT22;6870;50.944;6.932;2024-01-25T00:50:11;17.80;29.10
7341;DHT22;6870;50.944;6.932;2024-01-25T00:52:40;17.70;29.00
7341;DHT22;6870;50.944;6.932;2024-01-25T00:55:10;17.50;28.80
7341;DHT22;6870;50.944;6.932;2024-01-25T00:57:39;17.60;28.90
7341;DHT22;6870;50.944;6.932;2024-01-25T01:00:09;17.60;28.80
7341;DHT22;6870;50.944;6.932;2024-01-25T01:02:42;17.30;28.70
7341;DHT22;6870;50.944;6.932;2024-01-25T01:05:12;17.60;28.90
7341;DHT22;6870;50.944;6.932;2024-01-25T01:07:42;17.60;28.90
7341;DHT22;6870;50.944;6.932;2024-01-25T01:10:11;17.60;28.90
7341;DHT22;6870;50.944;6.932;2024-01-25T01:12:41;17.60;28.80
7341;DHT22;6870;50.944;6.932;2024-01-25T01:15:09;17.50;28.80
7341;DHT22;6870;50.944;6.932;2024-01-25T01:17:37;17.50;28.90
7341;DHT22;6870;50.944;6.932;2024-01-25T01:20:08;17.50;28.90
7341;DHT22;6870;50.944;6.932;2024-01-25T01:22:37;17.50;28.90
7341;DHT22;6870;50.944;6.932;2024-01-25T01:25:05;17.40;28.80
7341;DHT22;6870;50.944;6.932;2024-01-25T01:27:34;17.50;28.90
7341;DHT22;6870;50.944;6.932;2024-01-25T01:30:03;17.30;28.80
7341;DHT22;6870;50.944;6.932;2024-01-25T01:32:34;17.50;28.90
7341;DHT22;6870;50.944;6.932;2024-01-25T01:35:03;17.40;28.70
7341;DHT22;6870;50.944;6.932;2024-01-25T01:37:34;17.50;29.00
7341;DHT22;6870;50.944;6.932;2024-01-25T01:40:02;17.30;28.90
7341;DHT22;6870;50.944;6.932;2024-01-25T01:42:31;17.40;28.70
7341;DHT22;6870;50.944;6.932;2024-01-25T01:45:00;17.30;28.90
7341;DHT22;6870;50.944;6.932;2024-01-25T01:47:28;17.30;28.50
7341;DHT22;6870;50.944;6.932;2024-01-25T01:49:57;17.50;29.00
7341;DHT22;6870;50.944;6.932;2024-01-25T01:52:25;17.40;29.00
7341;DHT22;6870;50.944;6.932;2024-01-25T01:54:55;17.70;29.20
7341;DHT22;6870;50.944;6.932;2024-01-25T01:57:24;17.60;29.20
7341;DHT22;6870;50.944;6.932;2024-01-25T01:59:52;17.50;29.10
7341;DHT22;6870;50.944;6.932;2024-01-25T02:02:20;17.50;29.20
7341;DHT22;6870;50.944;6.932;2024-01-25T02:04:50;17.60;29.20
7341;DHT22;6870;50.944;6.932;2024-01-25T02:07:19;17.30;28.80
7341;DHT22;6870;50.944;6.932;2024-01-25T02:09:47;17.10;28.70
7341;DHT22;6870;50.944;6.932;2024-01-25T02:12:16;17.60;29.30
7341;DHT22;6870;50.944;6.932;2024-01-25T02:14:46;17.50;29.20
7341;DHT22;6870;50.944;6.932;2024-01-25T02:17:14;17.60;29.10
7341;DHT22;6870;50.944;6.932;2024-01-25T02:19:42;17.60;29.30
7341;DHT22;6870;50.944;6.932;2024-01-25T02:22:10;17.20;29.00
7341;DHT22;6870;50.944;6.932;2024-01-25T02:24:40;17.20;28.90
7341;DHT22;6870;50.944;6.932;2024-01-25T02:27:08;17.20;29.00
7341;DHT22;6870;50.944;6.932;2024-01-25T02:29:36;17.30;29.10
7341;DHT22;6870;50.944;6.932;2024-01-25T02:32:05;17.10;29.00
7341;DHT22;6870;50.944;6.932;2024-01-25T02:34:33;17.20;29.10
7341;DHT22;6870;50.944;6.932;2024-01-25T02:37:02;17.40;29.10
7341;DHT22;6870;50.944;6.932;2024-01-25T02:39:30;17.30;29.10
7341;DHT22;6870;50.944;6.932;2024-01-25T02:42:00;16.90;28.50
7341;DHT22;6870;50.944;6.932;2024-01-25T02:44:28;17.20;28.90
7341;DHT22;6870;50.944;6.932;2024-01-25T02:46:56;17.30;29.00
7341;DHT22;6870;50.944;6.932;2024-01-25T02:49:25;17.30;29.20
7341;DHT22;6870;50.944;6.932;2024-01-25T02:51:53;17.50;29.30
7341;DHT22;6870;50.944;6.932;2024-01-25T02:54:21;17.20;29.10
7341;DHT22;6870;50.944;6.932;2024-01-25T02:56:49;17.40;29.20
7341;DHT22;6870;50.944;6.932;2024-01-25T02:59:18;16.90;28.80
7341;DHT22;6870;50.944;6.932;2024-01-25T03:01:48;17.30;29.20
7341;DHT22;6870;50.944;6.932;2024-01-25T03:04:17;17.30;29.20
7341;DHT22;6870;50.944;6.932;2024-01-25T03:06:45;17.10;29.00
7341;DHT22;6870;50.944;6.932;2024-01-25T03:09:14;17.00;29.10
7341;DHT22;6870;50.944;6.932;2024-01-25T03:11:42;17.20;29.20
7341;DHT22;6870;50.944;6.932;2024-01-25T03:14:10;17.20;29.20
7341;DHT22;6870;50.944;6.932;2024-01-25T03:16:40;17.30;29.40
7341;DHT22;6870;50.944;6.932;2024-01-25T03:19:10;17.20;29.20
7341;DHT22;6870;50.944;6.932;2024-01-25T03:21:39;17.30;29.30
7341;DHT22;6870;50.944;6.932;2024-01-25T03:24:07;17.50;29.20
7341;DHT22;6870;50.944;6.932;2024-01-25T03:26:35;17.20;29.20
7341;DHT22;6870;50.944;6.932;2024-01-25T03:29:03;17.20;29.10
7341;DHT22;6870;50.944;6.932;2024-01-25T03:31:32;17.10;29.10
7341;DHT22;6870;50.944;6.932;2024-01-25T03:34:01;17.20;29.10
7341;DHT22;6870;50.944;6.932;2024-01-25T03:36:29;17.20;29.10
7341;DHT22;6870;50.944;6.932;2024-01-25T03:38:58;17.20;29.20
7341;DHT22;6870;50.944;6.932;2024-01-25T03:41:26;17.30;29.20
7341;DHT22;6870;50.944;6.932;2024-01-25T03:43:55;17.20;29.20
7341;DHT22;6870;50.944;6.932;2024-01-25T03:46:24;17.30;29.30
7341;DHT22;6870;50.944;6.932;2024-01-25T03:48:52;17.10;29.30
7341;DHT22;6870;50.944;6.932;2024-01-25T03:51:22;17.20;29.40
7341;DHT22;6870;50.944;6.932;2024-01-25T03:53:51;17.00;29.10
7341;DHT22;6870;50.944;6.932;2024-01-25T03:56:21;17.10;29.20
7341;DHT22;6870;50.944;6.932;2024-01-25T03:58:49;17.20;29.30
7341;DHT22;6870;50.944;6.932;2024-01-25T04:01:17;17.00;29.20
7341;DHT22;6870;50.944;6.932;2024-01-25T04:03:46;17.00;29.20
7341;DHT22;6870;50.944;6.932;2024-01-25T04:06:14;17.20;29.30
7341;DHT22;6870;50.944;6.932;2024-01-25T04:08:43;17.20;29.20
7341;DHT22;6870;50.944;6.932;2024-01-25T04:11:11;17.40;29.40
7341;DHT22;6870;50.944;6.932;2024-01-25T04:13:40;17.10;29.30
7341;DHT22;6870;50.944;6.932;2024-01-25T04:16:13;17.30;29.40
7341;DHT22;6870;50.944;6.932;2024-01-25T04:18:42;17.10;29.20
7341;DHT22;6870;50.944;6.932;2024-01-25T04:21:10;17.20;29.40
7341;DHT22;6870;50.944;6.932;2024-01-25T04:23:38;17.20;29.30
7341;DHT22;6870;50.944;6.932;2024-01-25T04:26:07;17.20;29.40
7341;DHT22;6870;50.944;6.932;2024-01-25T04:28:35;17.20;29.40
7341;DHT22;6870;50.944;6.932;2024-01-25T04:31:03;17.20;29.40
7341;DHT22;6870;50.944;6.932;2024-01-25T04:33:32;17.20;29.40
7341;DHT22;6870;50.944;6.932;2024-01-25T04:36:00;17.30;29.50
7341;DHT22;6870;50.944;6.932;2024-01-25T04:38:28;17.30;29.50
7341;DHT22;6870;50.944;6.932;2024-01-25T04:40:56;17.30;29.50
7341;DHT22;6870;50.944;6.932;2024-01-25T04:43:25;17.10;29.40
7341;DHT22;6870;50.944;6.932;2024-01-25T04:45:54;17.40;29.60
7341;DHT22;6870;50.944;6.932;2024-01-25T04:48:22;17.10;29.40
7341;DHT22;6870;50.944;6.932;2024-01-25T04:50:50;17.10;29.40
7341;DHT22;6870;50.944;6.932;2024-01-25T04:53:18;17.30;29.50
7341;DHT22;6870;50.944;6.932;2024-01-25T04:55:46;17.20;29.50
7341;DHT22;6870;50.944;6.932;2024-01-25T04:58:14;16.90;29.20
7341;DHT22;6870;50.944;6.932;2024-01-25T05:00:44;17.20;29.50
7341;DHT22;6870;50.944;6.932;2024-01-25T05:03:12;17.10;29.40
7341;DHT22;6870;50.944;6.932;2024-01-25T05:05:40;17.10;29.30
7341;DHT22;6870;50.944;6.932;2024-01-25T05:08:08;17.30;29.40
7341;DHT22;6870;50.944;6.932;2024-01-25T05:10:36;17.40;29.50
7341;DHT22;6870;50.944;6.932;2024-01-25T05:13:05;17.30;29.50
7341;DHT22;6870;50.944;6.932;2024-01-25T05:15:33;17.20;29.40
7341;DHT22;6870;50.944;6.932;2024-01-25T05:18:03;17.20;29.50
7341;DHT22;6870;50.944;6.932;2024-01-25T05:20:31;17.00;29.20
7341;DHT22;6870;50.944;6.932;2024-01-25T05:23:01;17.20;29.40
7341;DHT22;6870;50.944;6.932;2024-01-25T05:25:30;17.40;30.20
7341;DHT22;6870;50.944;6.932;2024-01-25T05:27:58;17.30;29.40
7341;DHT22;6870;50.944;6.932;2024-01-25T05:30:27;17.00;29.20
7341;DHT22;6870;50.944;6.932;2024-01-25T05:32:56;17.00;29.20
7341;DHT22;6870;50.944;6.932;2024-01-25T05:35:26;17.00;29.20
7341;DHT22;6870;50.944;6.932;2024-01-25T05:37:54;17.10;29.30
7341;DHT22;6870;50.944;6.932;2024-01-25T05:40:22;17.10;29.30
7341;DHT22;6870;50.944;6.932;2024-01-25T05:42:50;17.40;29.60
7341;DHT22;6870;50.944;6.932;2024-01-25T05:45:19;17.10;29.30
7341;DHT22;6870;50.944;6.932;2024-01-25T05:47:48;17.20;29.40
7341;DHT22;6870;50.944;6.932;2024-01-25T05:50:17;17.30;29.40
7341;DHT22;6870;50.944;6.932;2024-01-25T05:52:47;16.80;29.10
7341;DHT22;6870;50.944;6.932;2024-01-25T05:55:15;17.20;29.40
7341;DHT22;6870;50.944;6.932;2024-01-25T05:57:43;16.90;29.20
7341;DHT22;6870;50.944;6.932;2024-01-25T06:00:13;17.30;29.50
7341;DHT22;6870;50.944;6.932;2024-01-25T06:02:46;17.10;29.30
7341;DHT22;6870;50.944;6.932;2024-01-25T06:05:14;17.40;29.60
7341;DHT22;6870;50.944;6.932;2024-01-25T06:07:42;17.10;29.40
7341;DHT22;6870;50.944;6.932;2024-01-25T06:10:12;16.90;29.20
7341;DHT22;6870;50.944;6.932;2024-01-25T06:12:40;17.20;30.00
7341;DHT22;6870;50.944;6.932;2024-01-25T06:15:09;17.30;29.50
7341;DHT22;6870;50.944;6.932;2024-01-25T06:17:37;17.20;29.40
7341;DHT22;6870;50.944;6.932;2024-01-25T06:20:06;17.30;29.50
7341;DHT22;6870;50.944;6.932;2024-01-25T06:22:35;17.10;29.40
7341;DHT22;6870;50.944;6.932;2024-01-25T06:25:04;17.10;29.40
7341;DHT22;6870;50.944;6.932;2024-01-25T06:27:36;17.10;29.40
7341;DHT22;6870;50.944;6.932;2024-01-25T06:30:05;17.20;29.50
7341;DHT22;6870;50.944;6.932;2024-01-25T06:32:34;17.10;29.40
7341;DHT22;6870;50.944;6.932;2024-01-25T06:35:02;17.20;29.50
7341;DHT22;6870;50.944;6.932;2024-01-25T06:37:31;17.10;29.40
7341;DHT22;6870;50.944;6.932;2024-01-25T06:40:00;17.40;29.60
7341;DHT22;6870;50.944;6.932;2024-01-25T06:42:28;17.20;29.50
7341;DHT22;6870;50.944;6.932;2024-01-25T06:44:57;17.10;29.40
7341;DHT22;6870;50.944;6.932;2024-01-25T06:47:26;17.20;29.50
7341;DHT22;6870;50.944;6.932;2024-01-25T06:49:54;17.10;29.50
7341;DHT22;6870;50.944;6.932;2024-01-25T06:52:22;17.20;29.60
7341;DHT22;6870;50.944;6.932;2024-01-25T06:54:52;17.40;29.70
7341;DHT22;6870;50.944;6.932;2024-01-25T06:57:20;17.10;29.40
7341;DHT22;6870;50.944;6.932;2024-01-25T06:59:48;17.10;29.50
7341;DHT22;6870;50.944;6.932;2024-01-25T07:02:19;17.20;29.50
7341;DHT22;6870;50.944;6.932;2024-01-25T07:04:48;17.20;29.50
7341;DHT22;6870;50.944;6.932;2024-01-25T07:07:20;17.30;29.60
7341;DHT22;6870;50.944;6.932;2024-01-25T07:09:48;17.10;29.50
7341;DHT22;6870;50.944;6.932;2024-01-25T07:12:16;17.20;29.50
7341;DHT22;6870;50.944;6.932;2024-01-25T07:14:44;17.00;29.40
7341;DHT22;6870;50.944;6.932;2024-01-25T07:17:12;17.20;29.50
7341;DHT22;6870;50.944;6.932;2024-01-25T07:19:42;17.00;29.40
7341;DHT22;6870;50.944;6.932;2024-01-25T07:22:10;17.10;29.50
7341;DHT22;6870;50.944;6.932;2024-01-25T07:24:40;17.10;29.50
7341;DHT22;6870;50.944;6.932;2024-01-25T07:27:08;17.10;29.50
7341;DHT22;6870;50.944;6.932;2024-01-25T07:29:37;17.00;29.40
7341;DHT22;6870;50.944;6.932;2024-01-25T07:32:06;17.30;29.60
7341;DHT22;6870;50.944;6.932;2024-01-25T07:34:34;17.00;30.00
7341;DHT22;6870;50.944;6.932;2024-01-25T07:37:04;17.10;29.50
7341;DHT22;6870;50.944;6.932;2024-01-25T07:39:32;17.00;29.40
7341;DHT22;6870;50.944;6.932;2024-01-25T07:42:00;17.10;29.50
7341;DHT22;6870;50.944;6.932;2024-01-25T07:44:29;17.20;29.50
7341;DHT22;6870;50.944;6.932;2024-01-25T07:46:57;17.10;29.50
7341;DHT22;6870;50.944;6.932;2024-01-25T07:49:25;17.20;29.60
7341;DHT22;6870;50.944;6.932;2024-01-25T07:51:54;17.20;29.50
7341;DHT22;6870;50.944;6.932;2024-01-25T07:54:24;17.00;29.40
7341;DHT22;6870;50.944;6.932;2024-01-25T07:56:53;17.20;29.60
7341;DHT22;6870;50.944;6.932;2024-01-25T07:59:21;17.20;29.60
7341;DHT22;6870;50.944;6.932;2024-01-25T08:01:49;17.10;29.60
7341;DHT22;6870;50.944;6.932;2024-01-25T08:04:20;17.20;29.70
7341;DHT22;6870;50.944;6.932;2024-01-25T08:06:52;17.20;29.60
7341;DHT22;6870;50.944;6.932;2024-01-25T08:09:20;17.10;29.50
7341;DHT22;6870;50.944;6.932;2024-01-25T08:11:49;17.10;29.50
7341;DHT22;6870;50.944;6.932;2024-01-25T08:14:18;17.10;29.50
7341;DHT22;6870;50.944;6.932;2024-01-25T08:16:46;16.90;29.30
7341;DHT22;6870;50.944;6.932;2024-01-25T08:19:15;17.10;29.60
7341;DHT22;6870;50.944;6.932;2024-01-25T08:21:43;17.20;29.60
7341;DHT22;6870;50.944;6.932;2024-01-25T08:24:12;17.20;29.60
7341;DHT22;6870;50.944;6.932;2024-01-25T08:26:40;17.20;29.60
7341;DHT22;6870;50.944;6.932;2024-01-25T08:29:10;17.20;29.50
7341;DHT22;6870;50.944;6.932;2024-01-25T08:31:38;17.10;29.60
7341;DHT22;6870;50.944;6.932;2024-01-25T08:34:06;17.20;29.60
7341;DHT22;6870;50.944;6.932;2024-01-25T08:36:35;17.20;29.60
7341;DHT22;6870;50.944;6.932;2024-01-25T08:39:03;16.90;29.30
7341;DHT22;6870;50.944;6.932;2024-01-25T08:41:32;17.10;29.60
7341;DHT22;6870;50.944;6.932;2024-01-25T08:44:00;17.20;29.50
7341;DHT22;6870;50.944;6.932;2024-01-25T08:46:29;17.10;29.50
7341;DHT22;6870;50.944;6.932;2024-01-25T08:48:57;17.20;29.50
7341;DHT22;6870;50.944;6.932;2024-01-25T08:51:26;17.20;29.50
7341;DHT22;6870;50.944;6.932;2024-01-25T08:53:54;17.10;29.40
7341;DHT22;6870;50.944;6.932;2024-01-25T08:56:22;17.30;29.60
7341;DHT22;6870;50.944;6.932;2024-01-25T08:58:50;16.90;29.30
7341;DHT22;6870;50.944;6.932;2024-01-25T09:01:19;17.20;29.50
7341;DHT22;6870;50.944;6.932;2024-01-25T09:03:48;17.10;29.40
7341;DHT22;6870;50.944;6.932;2024-01-25T09:06:16;17.30;29.50
7341;DHT22;6870;50.944;6.932;2024-01-25T09:08:45;17.20;29.40
7341;DHT22;6870;50.944;6.932;2024-01-25T09:11:13;17.50;29.60
7341;DHT22;6870;50.944;6.932;2024-01-25T09:13:41;17.50;29.50
7341;DHT22;6870;50.944;6.932;2024-01-25T09:16:12;17.10;29.20
7341;DHT22;6870;50.944;6.932;2024-01-25T09:18:41;17.60;29.40
7341;DHT22;6870;50.944;6.932;2024-01-25T09:21:11;17.50;29.30
7341;DHT22;6870;50.944;6.932;2024-01-25T09:23:39;17.70;29.50
7341;DHT22;6870;50.944;6.932;2024-01-25T09:26:07;17.60;29.30
7341;DHT22;6870;50.944;6.932;2024-01-25T09:28:36;17.40;29.00
7341;DHT22;6870;50.944;6.932;2024-01-25T09:31:04;17.60;29.00
7341;DHT22;6870;50.944;6.932;2024-01-25T09:33:33;17.40;29.10
7341;DHT22;6870;50.944;6.932;2024-01-25T09:36:02;17.60;29.00
7341;DHT22;6870;50.944;6.932;2024-01-25T09:38:32;17.40;29.00
7341;DHT22;6870;50.944;6.932;2024-01-25T09:41:01;17.80;29.00
7341;DHT22;6870;50.944;6.932;2024-01-25T09:43:30;17.40;28.60
7341;DHT22;6870;50.944;6.932;2024-01-25T09:46:00;17.70;28.70
7341;DHT22;6870;50.944;6.932;2024-01-25T09:48:29;17.60;28.60
7341;DHT22;6870;50.944;6.932;2024-01-25T09:50:59;17.80;28.50
7341;DHT22;6870;50.944;6.932;2024-01-25T09:53:29;17.90;28.40
7341;DHT22;6870;50.944;6.932;2024-01-25T09:56:06;17.70;28.60
7341;DHT22;6870;50.944;6.932;2024-01-25T09:58:38;18.10;28.80
7341;DHT22;6870;50.944;6.932;2024-01-25T10:01:08;18.10;28.60
7341;DHT22;6870;50.944;6.932;2024-01-25T10:03:38;18.30;28.50
7341;DHT22;6870;50.944;6.932;2024-01-25T10:06:07;17.80;27.60
7341;DHT22;6870;50.944;6.932;2024-01-25T10:08:37;18.10;28.20
7341;DHT22;6870;50.944;6.932;2024-01-25T10:11:06;18.00;27.80
7341;DHT22;6870;50.944;6.932;2024-01-25T10:13:40;18.10;28.00
7341;DHT22;6870;50.944;6.932;2024-01-25T10:16:11;18.10;28.00
7341;DHT22;6870;50.944;6.932;2024-01-25T10:18:42;18.20;27.90
7341;DHT22;6870;50.944;6.932;2024-01-25T10:21:13;18.20;27.60
7341;DHT22;6870;50.944;6.932;2024-01-25T10:23:46;18.20;27.40
7341;DHT22;6870;50.944;6.932;2024-01-25T10:26:15;18.20;27.30
7341;DHT22;6870;50.944;6.932;2024-01-25T10:28:51;18.10;26.50
7341;DHT22;6870;50.944;6.932;2024-01-25T10:31:29;18.30;27.10
7341;DHT22;6870;50.944;6.932;2024-01-25T10:33:59;18.40;27.60
7341;DHT22;6870;50.944;6.932;2024-01-25T10:36:28;18.50;26.80
7341;DHT22;6870;50.944;6.932;2024-01-25T10:38:59;18.70;27.00
7341;DHT22;6870;50.944;6.932;2024-01-25T10:41:32;18.60;26.90
7341;DHT22;6870;50.944;6.932;2024-01-25T10:44:02;18.50;26.70
7341;DHT22;6870;50.944;6.932;2024-01-25T10:46:31;18.50;26.70
7341;DHT22;6870;50.944;6.932;2024-01-25T10:49:00;18.70;26.90
7341;DHT22;6870;50.944;6.932;2024-01-25T10:51:30;18.90;27.00
7341;DHT22;6870;50.944;6.932;2024-01-25T10:54:00;19.00;27.00
7341;DHT22;6870;50.944;6.932;2024-01-25T10:56:29;19.00;27.00
7341;DHT22;6870;50.944;6.932;2024-01-25T10:58:57;18.30;26.00
7341;DHT22;6870;50.944;6.932;2024-01-25T11:01:27;18.80;26.30
7341;DHT22;6870;50.944;6.932;2024-01-25T11:03:55;18.60;26.00
7341;DHT22;6870;50.944;6.932;2024-01-25T11:06:23;19.10;26.20
7341;DHT22;6870;50.944;6.932;2024-01-25T11:09:05;18.70;26.00
7341;DHT22;6870;50.944;6.932;2024-01-25T11:11:35;19.10;26.60
7341;DHT22;6870;50.944;6.932;2024-01-25T11:14:11;19.10;25.90
7341;DHT22;6870;50.944;6.932;2024-01-25T11:16:41;18.60;25.70
7341;DHT22;6870;50.944;6.932;2024-01-25T11:19:16;18.80;26.00
7341;DHT22;6870;50.944;6.932;2024-01-25T11:21:46;19.10;25.80
7341;DHT22;6870;50.944;6.932;2024-01-25T11:24:19;19.00;26.20
7341;DHT22;6870;50.944;6.932;2024-01-25T11:26:49;18.90;26.00
7341;DHT22;6870;50.944;6.932;2024-01-25T11:29:18;19.00;26.00
7341;DHT22;6870;50.944;6.932;2024-01-25T11:31:50;19.20;26.10
7341;DHT22;6870;50.944;6.932;2024-01-25T11:34:19;19.10;25.80
7341;DHT22;6870;50.944;6.932;2024-01-25T11:36:49;19.20;25.90
7341;DHT22;6870;50.944;6.932;2024-01-25T11:39:20;19.20;26.10
7341;DHT22;6870;50.944;6.932;2024-01-25T11:41:48;19.10;25.70
7341;DHT22;6870;50.944;6.932;2024-01-25T11:44:19;19.20;25.60
7341;DHT22;6870;50.944;6.932;2024-01-25T11:46:50;19.20;25.00
7341;DHT22;6870;50.944;6.932;2024-01-25T11:49:19;19.50;25.80
7341;DHT22;6870;50.944;6.932;2024-01-25T11:51:47;19.10;25.30
7341;DHT22;6870;50.944;6.932;2024-01-25T11:54:15;19.40;25.60
7341;DHT22;6870;50.944;6.932;2024-01-25T11:56:45;18.90;24.70
7341;DHT22;6870;50.944;6.932;2024-01-25T11:59:13;19.10;25.20
7341;DHT22;6870;50.944;6.932;2024-01-25T12:01:41;19.20;25.80
7341;DHT22;6870;50.944;6.932;2024-01-25T12:04:09;19.30;25.30
7341;DHT22;6870;50.944;6.932;2024-01-25T12:06:38;19.00;25.10
7341;DHT22;6870;50.944;6.932;2024-01-25T12:09:08;19.30;25.40
7341;DHT22;6870;50.944;6.932;2024-01-25T12:11:36;19.30;25.40
7341;DHT22;6870;50.944;6.932;2024-01-25T12:14:07;19.20;25.30
7341;DHT22;6870;50.944;6.932;2024-01-25T12:16:35;19.30;25.40
7341;DHT22;6870;50.944;6.932;2024-01-25T12:19:05;19.20;24.70
7341;DHT22;6870;50.944;6.932;2024-01-25T12:21:34;19.30;24.90
7341;DHT22;6870;50.944;6.932;2024-01-25T12:24:04;19.40;25.10
7341;DHT22;6870;50.944;6.932;2024-01-25T12:26:34;19.60;25.30
7341;DHT22;6870;50.944;6.932;2024-01-25T12:29:02;19.10;25.00
7341;DHT22;6870;50.944;6.932;2024-01-25T12:31:33;19.70;25.50
7341;DHT22;6870;50.944;6.932;2024-01-25T12:34:01;19.30;24.90
7341;DHT22;6870;50.944;6.932;2024-01-25T12:36:29;19.60;24.80
7341;DHT22;6870;50.944;6.932;2024-01-25T12:38:59;19.40;25.20
7341;DHT22;6870;50.944;6.932;2024-01-25T12:41:28;19.30;25.00
7341;DHT22;6870;50.944;6.932;2024-01-25T12:43:57;19.40;25.00
7341;DHT22;6870;50.944;6.932;2024-01-25T12:46:26;19.40;25.20
7341;DHT22;6870;50.944;6.932;2024-01-25T12:48:56;19.40;24.80
7341;DHT22;6870;50.944;6.932;2024-01-25T12:51:26;19.50;25.50
7341;DHT22;6870;50.944;6.932;2024-01-25T12:53:54;19.30;25.40
7341;DHT22;6870;50.944;6.932;2024-01-25T12:56:23;19.30;25.30
7341;DHT22;6870;50.944;6.932;2024-01-25T12:58:51;19.40;25.30
7341;DHT22;6870;50.944;6.932;2024-01-25T13:01:20;19.40;25.10
7341;DHT22;6870;50.944;6.932;2024-01-25T13:03:49;19.30;25.60
7341;DHT22;6870;50.944;6.932;2024-01-25T13:06:18;19.50;25.70
7341;DHT22;6870;50.944;6.932;2024-01-25T13:08:46;19.10;25.30
7341;DHT22;6870;50.944;6.932;2024-01-25T13:11:15;19.20;25.20
7341;DHT22;6870;50.944;6.932;2024-01-25T13:13:44;19.30;25.20
7341;DHT22;6870;50.944;6.932;2024-01-25T13:16:12;19.20;25.10
7341;DHT22;6870;50.944;6.932;2024-01-25T13:18:40;19.50;25.10
7341;DHT22;6870;50.944;6.932;2024-01-25T13:21:08;19.20;25.30
7341;DHT22;6870;50.944;6.932;2024-01-25T13:23:38;19.00;24.80
7341;DHT22;6870;50.944;6.932;2024-01-25T13:26:06;19.50;25.60
7341;DHT22;6870;50.944;6.932;2024-01-25T13:28:34;19.30;25.40
7341;DHT22;6870;50.944;6.932;2024-01-25T13:31:02;19.00;25.50
7341;DHT22;6870;50.944;6.932;2024-01-25T13:33:30;18.90;25.10
7341;DHT22;6870;50.944;6.932;2024-01-25T13:35:59;19.20;25.50
7341;DHT22;6870;50.944;6.932;2024-01-25T13:38:27;19.40;25.60
7341;DHT22;6870;50.944;6.932;2024-01-25T13:40:56;19.30;25.60
7341;DHT22;6870;50.944;6.932;2024-01-25T13:43:24;19.30;25.10
7341;DHT22;6870;50.944;6.932;2024-01-25T13:45:53;19.10;25.00
7341;DHT22;6870;50.944;6.932;2024-01-25T13:48:22;19.00;25.40
7341;DHT22;6870;50.944;6.932;2024-01-25T13:50:50;19.00;25.50
7341;DHT22;6870;50.944;6.932;2024-01-25T13:53:18;18.90;25.40
7341;DHT22;6870;50.944;6.932;2024-01-25T13:55:46;19.30;25.80
7341;DHT22;6870;50.944;6.932;2024-01-25T13:58:16;19.10;25.50
7341;DHT22;6870;50.944;6.932;2024-01-25T14:00:44;19.00;25.30
7341;DHT22;6870;50.944;6.932;2024-01-25T14:03:15;19.00;25.60
7341;DHT22;6870;50.944;6.932;2024-01-25T14:05:43;19.20;25.80
7341;DHT22;6870;50.944;6.932;2024-01-25T14:08:11;19.10;25.80
7341;DHT22;6870;50.944;6.932;2024-01-25T14:10:39;18.80;25.70
7341;DHT22;6870;50.944;6.932;2024-01-25T14:13:07;19.10;26.00
7341;DHT22;6870;50.944;6.932;2024-01-25T14:15:37;19.20;26.10
7341;DHT22;6870;50.944;6.932;2024-01-25T14:18:06;19.20;26.20
7341;DHT22;6870;50.944;6.932;2024-01-25T14:20:34;19.00;25.90
7341;DHT22;6870;50.944;6.932;2024-01-25T14:23:03;18.90;25.50
7341;DHT22;6870;50.944;6.932;2024-01-25T14:25:32;19.00;26.10
7341;DHT22;6870;50.944;6.932;2024-01-25T14:28:00;19.10;26.10
7341;DHT22;6870;50.944;6.932;2024-01-25T14:30:28;19.10;26.10
7341;DHT22;6870;50.944;6.932;2024-01-25T14:32:57;19.20;26.20
7341;DHT22;6870;50.944;6.932;2024-01-25T14:35:26;19.10;26.20
7341;DHT22;6870;50.944;6.932;2024-01-25T14:37:56;19.10;26.20
7341;DHT22;6870;50.944;6.932;2024-01-25T14:40:24;19.00;26.30
7341;DHT22;6870;50.944;6.932;2024-01-25T14:43:12;19.20;26.50
7341;DHT22;6870;50.944;6.932;2024-01-25T14:45:42;19.00;25.80
7341;DHT22;6870;50.944;6.932;2024-01-25T14:48:12;19.10;26.30
7341;DHT22;6870;50.944;6.932;2024-01-25T14:50:40;18.90;26.00
7341;DHT22;6870;50.944;6.932;2024-01-25T14:53:08;19.00;26.20
7341;DHT22;6870;50.944;6.932;2024-01-25T14:55:37;18.90;25.80
7341;DHT22;6870;50.944;6.932;2024-01-25T14:58:05;19.10;26.10
7341;DHT22;6870;50.944;6.932;2024-01-25T15:00:34;18.80;26.30
7341;DHT22;6870;50.944;6.932;2024-01-25T15:03:03;18.70;26.30
7341;DHT22;6870;50.944;6.932;2024-01-25T15:05:33;18.60;26.20
7341;DHT22;6870;50.944;6.932;2024-01-25T15:08:01;19.00;26.20
7341;DHT22;6870;50.944;6.932;2024-01-25T15:10:29;18.70;25.70
7341;DHT22;6870;50.944;6.932;2024-01-25T15:12:58;18.60;25.90
7341;DHT22;6870;50.944;6.932;2024-01-25T15:15:26;19.00;26.10
7341;DHT22;6870;50.944;6.932;2024-01-25T15:17:55;18.80;26.50
7341;DHT22;6870;50.944;6.932;2024-01-25T15:20:23;19.00;26.70
7341;DHT22;6870;50.944;6.932;2024-01-25T15:22:53;18.80;26.60
7341;DHT22;6870;50.944;6.932;2024-01-25T15:25:23;18.60;26.50
7341;DHT22;6870;50.944;6.932;2024-01-25T15:27:53;18.60;26.20
7341;DHT22;6870;50.944;6.932;2024-01-25T15:30:21;18.30;26.10
7341;DHT22;6870;50.944;6.932;2024-01-25T15:32:50;18.70;26.70
7341;DHT22;6870;50.944;6.932;2024-01-25T15:35:18;18.70;26.70
7341;DHT22;6870;50.944;6.932;2024-01-25T15:37:46;18.60;26.70
7341;DHT22;6870;50.944;6.932;2024-01-25T15:40:17;18.70;26.30
7341;DHT22;6870;50.944;6.932;2024-01-25T15:42:46;18.60;26.70
7341;DHT22;6870;50.944;6.932;2024-01-25T15:45:19;18.80;26.60
7341;DHT22;6870;50.944;6.932;2024-01-25T15:47:47;18.50;26.70
7341;DHT22;6870;50.944;6.932;2024-01-25T15:50:16;18.60;26.80
7341;DHT22;6870;50.944;6.932;2024-01-25T15:52:45;18.50;26.80
7341;DHT22;6870;50.944;6.932;2024-01-25T15:55:14;18.80;27.10
7341;DHT22;6870;50.944;6.932;2024-01-25T15:57:43;18.20;26.60
7341;DHT22;6870;50.944;6.932;2024-01-25T16:00:12;18.30;26.80
7341;DHT22;6870;50.944;6.932;2024-01-25T16:02:42;18.70;27.70
7341;DHT22;6870;50.944;6.932;2024-01-25T16:05:10;18.70;26.80
7341;DHT22;6870;50.944;6.932;2024-01-25T16:07:39;18.60;26.70
7341;DHT22;6870;50.944;6.932;2024-01-25T16:10:17;18.50;26.50
7341;DHT22;6870;50.944;6.932;2024-01-25T16:12:46;18.70;27.10